createdAt,value
2023-03-01T00:00:14.379Z,21.88
2023-03-01T00:02:46.387Z,21.83
2023-03-01T00:05:18.241Z,21.02
2023-03-01T00:07:54.667Z,22.00
2023-03-01T00:10:27.610Z,19.52
2023-03-01T00:12:59.426Z,22.83
2023-03-01T00:15:31.559Z,24.33
2023-03-01T00:18:03.524Z,19.95
2023-03-01T00:20:36.045Z,21.60
2023-03-01T00:23:07.853Z,22.65
2023-03-01T00:25:43.329Z,22.50
2023-03-01T00:28:15.958Z,23.20
2023-03-01T00:30:48.369Z,23.65
2023-03-01T00:33:20.256Z,25.02
2023-03-01T00:35:53.023Z,22.27
2023-03-01T00:38:24.967Z,22.40
2023-03-01T00:41:11.231Z,24.70
2023-03-01T00:43:44.264Z,21.17
2023-03-01T00:46:19.824Z,26.58
2023-03-01T00:48:52.031Z,21.25
2023-03-01T00:51:27.506Z,22.42
2023-03-01T00:54:02.810Z,24.65
2023-03-01T00:56:34.914Z,23.48
2023-03-01T00:59:07.001Z,20.20
2023-03-01T01:01:39.152Z,22.20
2023-03-01T01:04:13.571Z,22.88
2023-03-01T01:06:47.660Z,20.27
2023-03-01T01:09:19.729Z,24.75
2023-03-01T01:11:52.511Z,23.75
2023-03-01T01:14:24.721Z,19.52
2023-03-01T01:16:57.212Z,20.92
2023-03-01T01:19:29.195Z,22.92
2023-03-01T01:22:01.078Z,20.80
2023-03-01T01:24:33.023Z,20.30
2023-03-01T01:27:05.044Z,19.52
2023-03-01T01:29:37.687Z,21.55
2023-03-01T01:32:09.646Z,20.63
2023-03-01T01:34:41.583Z,20.30
2023-03-01T01:37:13.422Z,23.98
2023-03-01T01:39:45.327Z,22.60
2023-03-01T01:42:18.888Z,18.85
2023-03-01T01:45:26.988Z,26.00
2023-03-01T01:48:05.816Z,20.92
2023-03-01T01:50:41.608Z,20.73
2023-03-01T01:53:17.969Z,19.65
2023-03-01T01:55:55.339Z,21.38
2023-03-01T01:58:30.605Z,20.73
2023-03-01T02:01:03.832Z,22.05
2023-03-01T02:03:38.701Z,20.80
2023-03-01T02:06:34.555Z,23.25
2023-03-01T02:09:12.558Z,19.63
2023-03-01T02:11:45.722Z,20.27
2023-03-01T02:14:18.027Z,21.92
2023-03-01T02:16:50.079Z,23.15
2023-03-01T02:19:37.051Z,22.08
2023-03-01T02:22:33.406Z,20.58
2023-03-01T02:25:20.288Z,23.60
2023-03-01T02:28:16.625Z,23.42
2023-03-01T02:31:09.063Z,24.33
2023-03-01T02:33:44.090Z,24.27
2023-03-01T02:36:21.370Z,24.42
2023-03-01T02:38:57.727Z,22.70
2023-03-01T02:41:33.394Z,23.15
2023-03-01T02:44:06.746Z,22.58
2023-03-01T02:46:45.959Z,28.10
2023-03-01T02:49:28.979Z,24.95
2023-03-01T02:52:23.976Z,24.77
2023-03-01T02:55:07.936Z,24.75
2023-03-01T02:57:43.502Z,25.80
2023-03-01T03:00:27.241Z,23.70
2023-03-01T03:02:59.072Z,24.02
2023-03-01T03:05:32.349Z,24.08
2023-03-01T03:08:04.554Z,25.30
2023-03-01T03:10:42.012Z,24.38
2023-03-01T03:13:15.149Z,21.98
2023-03-01T03:15:48.904Z,25.55
2023-03-01T03:18:21.978Z,23.73
2023-03-01T03:20:55.130Z,24.05
2023-03-01T03:23:27.009Z,22.88
2023-03-01T03:25:58.950Z,28.90
2023-03-01T03:28:35.194Z,22.48
2023-03-01T03:31:09.054Z,24.00
2023-03-01T03:33:40.993Z,25.55
2023-03-01T03:36:24.363Z,21.33
2023-03-01T03:38:56.194Z,23.23
2023-03-01T03:41:27.999Z,23.42
2023-03-01T03:44:00.563Z,23.27
2023-03-01T03:46:32.767Z,24.60
2023-03-01T03:49:04.878Z,23.92
2023-03-01T03:51:36.871Z,24.08
2023-03-01T03:54:08.763Z,23.58
2023-03-01T03:56:41.047Z,22.45
2023-03-01T03:59:12.982Z,25.98
2023-03-01T04:01:46.212Z,22.83
2023-03-01T04:04:19.884Z,23.58
2023-03-01T04:06:51.681Z,23.00
2023-03-01T04:09:23.516Z,23.73
2023-03-01T04:11:55.617Z,23.05
2023-03-01T04:14:27.449Z,25.73
2023-03-01T04:16:59.283Z,25.65
2023-03-01T04:19:37.169Z,22.98
2023-03-01T04:22:10.334Z,24.10
2023-03-01T04:24:42.247Z,21.95
2023-03-01T04:27:14.098Z,23.10
2023-03-01T04:29:46.053Z,23.23
2023-03-01T04:32:18.817Z,20.42
2023-03-01T04:34:50.638Z,26.02
2023-03-01T04:37:22.500Z,25.73
2023-03-01T04:39:54.494Z,28.45
2023-03-01T04:42:26.380Z,24.90
2023-03-01T04:44:58.222Z,24.45
2023-03-01T04:47:30.238Z,24.00
2023-03-01T04:50:02.159Z,23.90
2023-03-01T04:52:34.101Z,21.67
2023-03-01T04:55:06.457Z,25.08
2023-03-01T04:57:38.747Z,26.70
2023-03-01T05:00:22.019Z,23.58
2023-03-01T05:03:01.910Z,25.83
2023-03-01T05:05:37.204Z,23.27
2023-03-01T05:08:09.662Z,23.95
2023-03-01T05:10:42.879Z,29.48
2023-03-01T05:13:21.726Z,23.42
2023-03-01T05:15:59.114Z,22.05
2023-03-01T05:18:33.183Z,23.08
2023-03-01T05:21:08.845Z,24.52
2023-03-01T05:23:41.280Z,22.38
2023-03-01T05:26:27.981Z,27.92
2023-03-01T05:29:01.093Z,20.90
2023-03-01T05:31:32.984Z,22.00
2023-03-01T05:34:05.716Z,22.75
2023-03-01T05:36:37.590Z,21.20
2023-03-01T05:39:09.545Z,28.65
2023-03-01T05:41:41.687Z,21.92
2023-03-01T05:44:13.577Z,22.30
2023-03-01T05:46:45.962Z,21.08
2023-03-01T05:49:18.458Z,22.42
2023-03-01T05:51:52.780Z,20.02
2023-03-01T05:54:24.588Z,20.15
2023-03-01T05:56:57.326Z,26.10
2023-03-01T05:59:29.213Z,23.17
2023-03-01T06:02:01.064Z,26.48
2023-03-01T06:04:32.895Z,20.75
2023-03-01T06:07:05.466Z,22.77
2023-03-01T06:09:37.400Z,22.23
2023-03-01T06:12:09.212Z,21.42
2023-03-01T06:14:41.020Z,42.28
2023-03-01T06:17:13.031Z,25.10
2023-03-01T06:19:45.013Z,22.83
2023-03-01T06:22:16.949Z,23.92
2023-03-01T06:24:48.904Z,26.67
2023-03-01T06:27:20.991Z,26.02
2023-03-01T06:29:52.863Z,27.60
2023-03-01T06:32:24.740Z,25.33
2023-03-01T06:34:56.793Z,32.63
2023-03-01T06:37:28.698Z,26.80
2023-03-01T06:40:00.634Z,26.05
2023-03-01T06:42:32.479Z,27.02
2023-03-01T06:45:06.074Z,22.42
2023-03-01T06:47:37.976Z,28.73
2023-03-01T06:50:10.611Z,25.27
2023-03-01T06:52:44.919Z,26.88
2023-03-01T06:55:16.756Z,23.60
2023-03-01T06:57:48.568Z,27.45
2023-03-01T07:00:21.244Z,30.33
2023-03-01T07:02:53.277Z,23.45
2023-03-01T07:05:25.223Z,24.55
2023-03-01T07:07:57.649Z,24.25
2023-03-01T07:10:29.609Z,25.23
2023-03-01T07:13:01.657Z,20.52
2023-03-01T07:15:34.081Z,24.13
2023-03-01T07:18:06.134Z,25.25
2023-03-01T07:20:38.052Z,21.65
2023-03-01T07:23:09.842Z,32.70
2023-03-01T07:25:41.717Z,27.20
2023-03-01T07:28:13.646Z,30.15
2023-03-01T07:30:45.865Z,44.10
2023-03-01T07:33:18.627Z,49.13
2023-03-01T07:36:00.593Z,76.97
2023-03-01T07:38:32.879Z,72.40
2023-03-01T07:41:06.644Z,67.93
2023-03-01T07:43:38.572Z,29.48
2023-03-01T07:46:10.962Z,20.73
2023-03-01T07:48:43.078Z,26.23
2023-03-01T07:51:15.066Z,23.65
2023-03-01T07:53:48.809Z,27.58
2023-03-01T07:56:22.716Z,33.97
2023-03-01T07:58:54.706Z,28.52
2023-03-01T08:01:26.740Z,27.55
2023-03-01T08:03:58.780Z,24.60
2023-03-01T08:06:30.911Z,28.92
2023-03-01T08:09:03.450Z,29.05
2023-03-01T08:11:35.329Z,24.70
2023-03-01T08:14:07.619Z,25.83
2023-03-01T08:16:39.778Z,20.48
2023-03-01T08:19:12.985Z,23.55
2023-03-01T08:21:44.955Z,19.38
2023-03-01T08:24:16.863Z,24.52
2023-03-01T08:26:48.981Z,28.00
2023-03-01T08:29:21.145Z,27.05
2023-03-01T08:31:53.147Z,24.15
2023-03-01T08:34:25.275Z,22.70
2023-03-01T08:36:57.289Z,29.52
2023-03-01T08:39:29.368Z,26.40
2023-03-01T08:42:01.254Z,29.15
2023-03-01T08:44:33.283Z,26.73
2023-03-01T08:47:05.976Z,23.50
2023-03-01T08:49:37.861Z,20.10
2023-03-01T08:52:15.023Z,28.92
2023-03-01T08:54:49.023Z,21.90
2023-03-01T08:57:21.364Z,25.75
2023-03-01T08:59:53.310Z,20.38
2023-03-01T09:02:25.215Z,21.73
2023-03-01T09:04:57.099Z,20.73
2023-03-01T09:07:31.644Z,26.15
2023-03-01T09:10:03.855Z,21.60
2023-03-01T09:12:35.713Z,16.15
2023-03-01T09:15:08.387Z,20.00
2023-03-01T09:17:40.392Z,16.77
2023-03-01T09:20:14.983Z,13.65
2023-03-01T09:22:47.353Z,15.52
2023-03-01T09:25:19.239Z,17.95
2023-03-01T09:27:55.414Z,36.60
2023-03-01T09:30:27.533Z,20.17
2023-03-01T09:32:59.474Z,23.42
2023-03-01T09:35:31.563Z,19.58
2023-03-01T09:38:03.896Z,13.00
2023-03-01T09:40:35.759Z,15.68
2023-03-01T09:43:21.920Z,15.10
2023-03-01T09:45:57.205Z,13.57
2023-03-01T09:48:46.278Z,18.40
2023-03-01T09:51:34.572Z,25.33
2023-03-01T09:54:09.376Z,14.38
2023-03-01T09:56:47.923Z,16.92
2023-03-01T09:59:35.055Z,13.45
2023-03-01T10:02:29.328Z,14.73
2023-03-01T10:05:39.554Z,14.18
2023-03-01T10:08:30.509Z,16.00
2023-03-01T10:11:03.625Z,16.70
2023-03-01T10:13:45.521Z,14.93
2023-03-01T10:16:28.544Z,15.95
2023-03-01T10:19:03.632Z,17.08
2023-03-01T10:21:44.155Z,13.68
2023-03-01T10:24:22.805Z,13.87
2023-03-01T10:27:03.939Z,17.92
2023-03-01T10:29:44.214Z,15.70
2023-03-01T10:32:17.205Z,12.43
2023-03-01T10:34:49.641Z,15.18
2023-03-01T10:37:24.240Z,15.20
2023-03-01T10:40:09.372Z,15.32
2023-03-01T10:42:50.349Z,14.65
2023-03-01T10:45:34.692Z,16.30
2023-03-01T10:48:10.177Z,14.57
2023-03-01T10:50:44.490Z,17.20
2023-03-01T10:53:26.053Z,12.25
2023-03-01T10:58:32.480Z,16.30
2023-03-01T11:01:16.640Z,10.95
2023-03-01T11:04:04.410Z,11.20
2023-03-01T11:06:57.053Z,14.82
2023-03-01T11:09:39.491Z,14.57
2023-03-01T11:12:18.823Z,14.38
2023-03-01T11:14:59.286Z,17.08
2023-03-01T11:17:39.079Z,11.85
2023-03-01T11:20:38.872Z,16.05
2023-03-01T11:23:14.101Z,16.52
2023-03-01T11:25:57.876Z,14.82
2023-03-01T11:28:31.327Z,14.32
2023-03-01T11:31:15.311Z,13.77
2023-03-01T11:34:18.844Z,12.85
2023-03-01T11:36:59.717Z,11.48
2023-03-01T11:39:53.213Z,13.38
2023-03-01T11:42:49.576Z,12.68
2023-03-01T11:45:25.647Z,15.82
2023-03-01T11:48:08.620Z,9.95
2023-03-01T11:50:50.625Z,12.65
2023-03-01T11:53:54.244Z,13.32
2023-03-01T11:56:29.088Z,13.18
2023-03-01T11:59:01.541Z,14.63
2023-03-01T12:02:05.976Z,13.68
2023-03-01T12:05:16.090Z,15.70
2023-03-01T12:08:07.075Z,15.07
2023-03-01T12:11:03.385Z,14.37
2023-03-01T12:14:04.497Z,13.68
2023-03-01T12:16:58.268Z,18.85
2023-03-01T12:19:53.364Z,17.77
2023-03-01T12:22:32.489Z,16.88
2023-03-01T12:25:27.772Z,16.00
2023-03-01T12:28:31.273Z,8.48
2023-03-01T12:31:38.558Z,10.02
2023-03-01T12:34:18.603Z,8.90
2023-03-01T12:36:56.741Z,9.52
2023-03-01T12:39:46.149Z,8.63
2023-03-01T12:42:18.012Z,9.38
2023-03-01T12:44:58.752Z,14.60
2023-03-01T12:48:11.328Z,8.73
2023-03-01T12:51:06.599Z,9.02
2023-03-01T12:53:50.420Z,7.30
2023-03-01T12:56:39.186Z,7.18
2023-03-01T12:59:19.830Z,10.52
2023-03-01T13:01:59.040Z,7.40
2023-03-01T13:05:08.219Z,11.95
2023-03-01T13:07:44.589Z,8.07
2023-03-01T13:11:12.368Z,7.18
2023-03-01T13:13:48.016Z,7.70
2023-03-01T13:16:55.293Z,12.68
2023-03-01T13:19:33.564Z,9.52
2023-03-01T13:22:32.777Z,12.48
2023-03-01T13:25:19.161Z,10.73
2023-03-01T13:27:51.493Z,11.88
2023-03-01T13:30:36.032Z,12.88
2023-03-01T13:33:28.348Z,10.60
2023-03-01T13:36:01.481Z,13.98
2023-03-01T13:38:55.062Z,10.57
2023-03-01T13:41:49.661Z,9.43
2023-03-01T13:44:27.765Z,9.30
2023-03-01T13:47:18.446Z,12.68
2023-03-01T13:50:02.009Z,13.05
2023-03-01T13:52:52.190Z,7.90
2023-03-01T13:55:46.499Z,7.55
2023-03-01T13:58:28.029Z,8.77
2023-03-01T14:03:42.706Z,9.07
2023-03-01T14:06:21.217Z,10.52
2023-03-01T14:09:34.437Z,13.40
2023-03-01T14:12:35.514Z,9.23
2023-03-01T14:15:26.021Z,13.52
2023-03-01T14:18:26.644Z,12.25
2023-03-01T14:21:00.801Z,9.80
2023-03-01T14:23:35.546Z,8.30
2023-03-01T14:26:10.525Z,8.35
2023-03-01T14:28:43.900Z,8.98
2023-03-01T14:31:52.104Z,11.50
2023-03-01T14:34:25.735Z,9.90
2023-03-01T14:36:58.628Z,11.52
2023-03-01T14:39:33.157Z,9.65
2023-03-01T14:42:15.531Z,9.77
2023-03-01T14:44:50.727Z,8.43
2023-03-01T14:47:34.824Z,7.88
2023-03-01T14:50:17.101Z,10.48
2023-03-01T14:52:53.107Z,9.75
2023-03-01T14:55:33.047Z,11.57
2023-03-01T14:58:06.965Z,11.35
2023-03-01T15:00:40.676Z,7.57
2023-03-01T15:03:20.180Z,11.43
2023-03-01T15:05:53.358Z,15.30
2023-03-01T15:11:33.164Z,12.13
2023-03-01T15:14:28.272Z,13.45
2023-03-01T15:17:00.542Z,13.48
2023-03-01T15:19:32.700Z,10.77
2023-03-01T15:22:13.178Z,9.70
2023-03-01T15:24:51.803Z,10.30
2023-03-01T15:27:26.135Z,10.50
2023-03-01T15:30:04.715Z,12.00
2023-03-01T15:32:43.257Z,12.02
2023-03-01T15:38:59.146Z,10.07
2023-03-01T15:41:53.130Z,13.35
2023-03-01T15:44:42.747Z,11.13
2023-03-01T15:47:40.066Z,11.90
2023-03-01T15:50:45.168Z,10.57
2023-03-01T15:53:43.900Z,12.40
2023-03-01T15:56:25.510Z,13.68
2023-03-01T15:59:02.329Z,10.25
2023-03-01T16:01:35.808Z,9.15
2023-03-01T16:04:08.085Z,8.95
2023-03-01T16:06:40.286Z,9.82
2023-03-01T16:09:13.521Z,13.15
2023-03-01T16:11:45.792Z,17.38
2023-03-01T16:14:17.945Z,11.02
2023-03-01T16:16:50.357Z,13.25
2023-03-01T16:19:22.219Z,13.13
2023-03-01T16:21:54.123Z,12.82
2023-03-01T16:24:27.091Z,13.35
2023-03-01T16:26:58.984Z,14.18
2023-03-01T16:29:30.938Z,14.18
2023-03-01T16:32:03.628Z,11.75
2023-03-01T16:34:35.794Z,12.23
2023-03-01T16:37:07.603Z,12.77
2023-03-01T16:39:39.932Z,16.92
2023-03-01T16:42:14.101Z,15.57
2023-03-01T16:44:47.252Z,14.77
2023-03-01T16:47:19.241Z,14.48
2023-03-01T16:49:54.944Z,14.52
2023-03-01T16:52:27.221Z,15.13
2023-03-01T16:55:01.622Z,13.30
2023-03-01T16:57:35.531Z,15.73
2023-03-01T17:00:10.667Z,23.60
2023-03-01T17:02:43.304Z,21.33
2023-03-01T17:05:15.291Z,22.52
2023-03-01T17:07:47.554Z,19.48
2023-03-01T17:10:19.621Z,14.93
2023-03-01T17:12:51.696Z,13.20
2023-03-01T17:15:23.599Z,56.72
2023-03-01T17:17:55.638Z,16.55
2023-03-01T17:20:27.706Z,12.38
2023-03-01T17:22:59.690Z,12.00
2023-03-01T17:25:31.672Z,13.15
2023-03-01T17:28:03.607Z,10.48
2023-03-01T17:30:35.709Z,11.20
2023-03-01T17:33:07.678Z,8.70
2023-03-01T17:35:39.934Z,10.52
2023-03-01T17:38:11.878Z,9.50
2023-03-01T17:40:47.946Z,8.15
2023-03-01T17:43:20.347Z,13.68
2023-03-01T17:45:52.652Z,7.88
2023-03-01T17:48:25.813Z,8.55
2023-03-01T17:50:57.931Z,6.80
2023-03-01T17:53:30.055Z,7.57
2023-03-01T17:56:05.333Z,9.25
2023-03-01T17:58:39.269Z,8.95
2023-03-01T18:01:19.889Z,12.15
2023-03-01T18:03:53.510Z,10.30
2023-03-01T18:06:27.422Z,8.65
2023-03-01T18:08:59.389Z,11.15
2023-03-01T18:11:34.645Z,7.05
2023-03-01T18:14:06.503Z,6.00
2023-03-01T18:16:39.790Z,6.38
2023-03-01T18:19:12.894Z,7.35
2023-03-01T18:21:44.742Z,8.18
2023-03-01T18:24:16.624Z,8.45
2023-03-01T18:26:48.738Z,8.60
2023-03-01T18:29:20.714Z,6.90
2023-03-01T18:31:52.667Z,10.57
2023-03-01T18:34:25.016Z,6.90
2023-03-01T18:37:08.843Z,5.70
2023-03-01T18:39:41.839Z,5.57
2023-03-01T18:42:16.372Z,6.35
2023-03-01T18:44:48.900Z,6.38
2023-03-01T18:47:21.224Z,6.03
2023-03-01T18:49:54.305Z,6.20
2023-03-01T18:52:26.210Z,7.22
2023-03-01T18:54:58.442Z,6.78
2023-03-01T18:57:30.380Z,7.25
2023-03-01T19:00:04.238Z,7.03
2023-03-01T19:02:36.397Z,9.65
2023-03-01T19:05:08.894Z,9.50
2023-03-01T19:07:40.816Z,8.75
2023-03-01T19:10:13.023Z,9.40
2023-03-01T19:12:46.073Z,8.80
2023-03-01T19:15:18.085Z,6.10
2023-03-01T19:17:50.108Z,5.20
2023-03-01T19:20:21.945Z,5.85
2023-03-01T19:22:53.858Z,5.20
2023-03-01T19:25:25.809Z,5.75
2023-03-01T19:27:57.776Z,4.20
2023-03-01T19:30:29.769Z,4.15
2023-03-01T19:33:01.713Z,3.60
2023-03-01T19:35:35.064Z,4.40
2023-03-01T19:38:07.047Z,3.75
2023-03-01T19:40:39.112Z,3.97
2023-03-01T19:43:12.926Z,3.40
2023-03-01T19:45:46.319Z,4.05
2023-03-01T19:48:18.218Z,3.97
2023-03-01T19:51:09.140Z,4.35
2023-03-01T19:53:42.006Z,4.15
2023-03-01T19:56:14.682Z,3.95
2023-03-01T19:58:50.368Z,3.72
2023-03-01T20:01:22.442Z,2.90
2023-03-01T20:03:57.049Z,3.45
2023-03-01T20:06:33.003Z,3.92
2023-03-01T20:09:20.424Z,2.22
2023-03-01T20:11:53.498Z,3.90
2023-03-01T20:14:25.407Z,2.08
2023-03-01T20:16:58.506Z,2.88
2023-03-01T20:19:30.804Z,3.63
2023-03-01T20:22:03.596Z,2.72
2023-03-01T20:24:35.628Z,2.45
2023-03-01T20:27:09.184Z,2.33
2023-03-01T20:29:41.770Z,3.37
2023-03-01T20:32:14.098Z,2.30
2023-03-01T20:34:46.160Z,1.85
2023-03-01T20:37:18.986Z,2.60
2023-03-01T20:39:52.299Z,2.00
2023-03-01T20:42:25.539Z,1.85
2023-03-01T20:44:57.679Z,2.40
2023-03-01T20:47:31.689Z,2.28
2023-03-01T20:50:05.307Z,1.77
2023-03-01T20:52:47.054Z,2.90
2023-03-01T20:55:19.824Z,2.08
2023-03-01T20:57:51.722Z,3.75
2023-03-01T21:00:23.846Z,3.08
2023-03-01T21:02:58.050Z,3.40
2023-03-01T21:05:31.662Z,5.85
2023-03-01T21:08:04.266Z,2.50
2023-03-01T21:10:38.068Z,2.95
2023-03-01T21:13:11.510Z,5.72
2023-03-01T21:15:51.550Z,2.72
2023-03-01T21:18:23.833Z,2.00
2023-03-01T21:21:01.482Z,2.40
2023-03-01T21:23:35.238Z,2.47
2023-03-01T21:26:19.998Z,2.05
2023-03-01T21:28:56.300Z,1.88
2023-03-01T21:31:35.139Z,1.92
2023-03-01T21:34:07.466Z,2.35
2023-03-01T21:36:40.582Z,1.83
2023-03-01T21:39:12.942Z,1.92
2023-03-01T21:41:47.342Z,1.85
2023-03-01T21:44:19.319Z,1.85
2023-03-01T21:46:51.357Z,2.03
2023-03-01T21:49:23.217Z,2.88
2023-03-01T21:51:55.426Z,1.60
2023-03-01T21:54:27.580Z,2.17
2023-03-01T21:56:59.678Z,2.33
2023-03-01T21:59:31.728Z,1.95
2023-03-01T22:02:03.610Z,2.55
2023-03-01T22:04:35.526Z,1.50
2023-03-01T22:07:08.027Z,1.48
2023-03-01T22:09:39.878Z,1.88
2023-03-01T22:12:11.710Z,1.77
2023-03-01T22:14:43.918Z,2.90
2023-03-01T22:17:15.903Z,1.58
2023-03-01T22:19:47.788Z,1.55
2023-03-01T22:22:28.626Z,1.90
2023-03-01T22:25:00.605Z,1.88
2023-03-01T22:27:34.138Z,2.03
2023-03-01T22:30:08.737Z,1.77
2023-03-01T22:32:40.780Z,1.80
2023-03-01T22:35:13.291Z,2.03
2023-03-01T22:37:46.810Z,5.60
2023-03-01T22:40:19.707Z,2.22
2023-03-01T22:42:51.794Z,2.85
2023-03-01T22:45:23.698Z,1.52
2023-03-01T22:48:00.218Z,2.28
2023-03-01T22:50:32.156Z,2.95
2023-03-01T22:53:04.079Z,1.48
2023-03-01T22:55:36.013Z,2.47
2023-03-01T22:58:08.223Z,1.55
2023-03-01T23:00:44.475Z,1.77
2023-03-01T23:03:18.195Z,1.80
2023-03-01T23:05:52.245Z,2.08
2023-03-01T23:08:24.103Z,1.50
2023-03-01T23:10:56.014Z,1.73
2023-03-01T23:13:28.338Z,1.33
2023-03-01T23:16:00.226Z,1.80
2023-03-01T23:18:35.849Z,1.52
2023-03-01T23:21:12.069Z,1.10
2023-03-01T23:23:46.479Z,1.48
2023-03-01T23:26:18.957Z,1.40
2023-03-01T23:28:50.910Z,1.58
2023-03-01T23:31:23.183Z,2.05
2023-03-01T23:33:55.105Z,0.90
2023-03-01T23:36:30.479Z,1.27
2023-03-01T23:39:06.046Z,0.85
2023-03-01T23:41:38.143Z,1.55
2023-03-01T23:44:17.281Z,1.50
2023-03-01T23:46:50.133Z,1.58
2023-03-01T23:49:23.329Z,1.02
2023-03-01T23:51:58.655Z,1.05
2023-03-01T23:54:31.499Z,1.30
2023-03-01T23:57:03.440Z,1.25
2023-03-01T23:59:35.485Z,1.65
